createdAt,value
2018-04-17T00:00:29.965Z,39.67
2018-04-17T00:02:55.776Z,40.00
2018-04-17T00:05:21.579Z,46.27
2018-04-17T00:07:47.370Z,44.83
2018-04-17T00:10:13.202Z,42.40
2018-04-17T00:12:38.991Z,42.20
2018-04-17T00:15:04.954Z,33.40
2018-04-17T00:17:30.745Z,41.93
2018-04-17T00:19:56.537Z,51.27
2018-04-17T00:22:22.354Z,35.77
2018-04-17T00:24:48.150Z,34.87
2018-04-17T00:27:13.929Z,41.30
2018-04-17T00:29:39.738Z,40.40
2018-04-17T00:32:05.529Z,42.90
2018-04-17T00:34:31.317Z,52.57
2018-04-17T00:36:57.113Z,45.83
2018-04-17T00:39:22.900Z,45.83
2018-04-17T00:41:48.743Z,50.80
2018-04-17T00:44:14.550Z,48.03
2018-04-17T00:46:40.346Z,49.43
2018-04-17T00:49:06.160Z,50.83
2018-04-17T00:51:31.977Z,60.43
2018-04-17T00:53:58.784Z,49.37
2018-04-17T00:56:24.589Z,50.53
2018-04-17T00:58:50.377Z,59.67
2018-04-17T01:01:16.193Z,46.17
2018-04-17T01:03:42.259Z,41.37
2018-04-17T01:06:08.076Z,50.30
2018-04-17T01:08:33.906Z,43.93
2018-04-17T01:10:59.697Z,47.40
2018-04-17T01:13:25.473Z,50.53
2018-04-17T01:15:51.261Z,43.30
2018-04-17T01:18:17.078Z,54.50
2018-04-17T01:20:42.864Z,43.40
2018-04-17T01:23:08.637Z,66.90
2018-04-17T01:25:34.433Z,57.80
2018-04-17T01:28:00.228Z,50.10
2018-04-17T01:30:26.023Z,54.83
2018-04-17T01:32:51.821Z,62.77
2018-04-17T01:35:17.616Z,72.57
2018-04-17T01:37:43.417Z,57.37
2018-04-17T01:40:09.228Z,68.37
2018-04-17T01:42:35.026Z,51.37
2018-04-17T01:45:00.826Z,67.77
2018-04-17T01:47:26.642Z,59.33
2018-04-17T01:49:52.436Z,54.03
2018-04-17T01:52:18.240Z,49.30
2018-04-17T01:54:44.070Z,64.73
2018-04-17T01:57:09.859Z,58.83
2018-04-17T01:59:35.654Z,49.53
2018-04-17T02:02:01.499Z,43.53
2018-04-17T02:04:27.309Z,72.93
2018-04-17T02:06:53.102Z,57.73
2018-04-17T02:09:18.914Z,60.70
2018-04-17T02:11:44.697Z,61.07
2018-04-17T02:14:10.488Z,76.40
2018-04-17T02:16:36.322Z,66.63
2018-04-17T02:19:02.121Z,65.43
2018-04-17T02:21:27.904Z,73.80
2018-04-17T02:23:53.709Z,62.23
2018-04-17T02:26:19.492Z,70.47
2018-04-17T02:28:45.270Z,78.83
2018-04-17T02:31:11.069Z,65.50
2018-04-17T02:33:36.861Z,70.87
2018-04-17T02:36:02.705Z,64.97
2018-04-17T02:38:28.864Z,77.77
2018-04-17T02:40:54.645Z,63.77
2018-04-17T02:43:20.427Z,61.77
2018-04-17T02:45:46.248Z,55.40
2018-04-17T02:48:12.052Z,66.83
2018-04-17T02:50:37.866Z,55.00
2018-04-17T02:53:03.657Z,45.40
2018-04-17T02:55:29.474Z,65.43
2018-04-17T02:57:55.258Z,50.87
2018-04-17T03:00:21.050Z,54.90
2018-04-17T03:02:46.853Z,43.37
2018-04-17T03:05:12.643Z,65.80
2018-04-17T03:07:38.429Z,59.77
2018-04-17T03:10:04.243Z,60.43
2018-04-17T03:12:30.057Z,66.30
2018-04-17T03:14:55.861Z,67.50
2018-04-17T03:17:21.642Z,60.90
2018-04-17T03:19:47.454Z,64.30
2018-04-17T03:22:13.237Z,80.03
2018-04-17T03:24:39.029Z,69.90
2018-04-17T03:27:04.851Z,64.10
2018-04-17T03:29:30.653Z,90.20
2018-04-17T03:31:56.428Z,69.30
2018-04-17T03:34:22.236Z,72.30
2018-04-17T03:36:48.028Z,72.53
2018-04-17T03:39:13.871Z,79.60
2018-04-17T03:41:39.666Z,78.50
2018-04-17T03:44:05.472Z,68.37
2018-04-17T03:46:31.264Z,72.00
2018-04-17T03:48:57.057Z,73.83
2018-04-17T03:51:22.874Z,83.03
2018-04-17T03:53:48.657Z,56.07
2018-04-17T03:56:14.445Z,68.20
2018-04-17T03:58:40.266Z,76.17
2018-04-17T04:01:06.117Z,77.30
2018-04-17T04:03:31.914Z,51.37
2018-04-17T04:05:57.727Z,51.80
2018-04-17T04:08:23.525Z,40.13
2018-04-17T04:10:49.346Z,46.57
2018-04-17T04:13:15.145Z,54.00
2018-04-17T04:15:40.926Z,44.03
2018-04-17T04:18:19.206Z,45.87
2018-04-17T04:23:58.480Z,56.10
2018-04-17T04:26:30.302Z,47.57
2018-04-17T04:28:56.129Z,49.47
2018-04-17T04:31:22.132Z,43.30
2018-04-17T04:33:47.950Z,49.53
2018-04-17T04:36:13.986Z,46.33
2018-04-17T04:38:39.792Z,60.50
2018-04-17T04:41:05.577Z,49.93
2018-04-17T04:43:31.661Z,41.10
2018-04-17T04:45:57.449Z,46.57
2018-04-17T04:48:23.249Z,40.30
2018-04-17T04:50:49.092Z,45.87
2018-04-17T04:53:14.881Z,42.90
2018-04-17T04:55:40.677Z,47.07
2018-04-17T04:58:06.515Z,40.03
2018-04-17T05:00:32.314Z,53.73
2018-04-17T05:02:58.118Z,53.20
2018-04-17T05:05:23.946Z,48.87
2018-04-17T05:07:49.741Z,66.13
2018-04-17T05:10:15.557Z,49.53
2018-04-17T05:12:41.374Z,44.67
2018-04-17T05:15:07.165Z,39.33
2018-04-17T05:17:32.967Z,48.27
2018-04-17T05:19:58.781Z,41.73
2018-04-17T05:22:24.582Z,43.20
2018-04-17T05:24:50.362Z,58.43
2018-04-17T05:27:16.149Z,79.40
2018-04-17T05:29:41.941Z,55.17
2018-04-17T05:34:40.476Z,44.63
2018-04-17T05:37:06.281Z,44.50
2018-04-17T05:39:32.110Z,52.30
2018-04-17T05:41:57.910Z,52.27
2018-04-17T05:44:23.696Z,55.80
2018-04-17T05:46:49.480Z,48.80
2018-04-17T05:49:15.266Z,45.67
2018-04-17T05:51:41.071Z,57.27
2018-04-17T05:54:06.842Z,42.70
2018-04-17T05:56:32.630Z,75.03
2018-04-17T05:58:58.452Z,58.03
2018-04-17T06:01:24.270Z,74.83
2018-04-17T06:03:50.045Z,52.40
2018-04-17T06:06:15.833Z,94.23
2018-04-17T06:08:41.645Z,62.23
2018-04-17T06:11:07.422Z,48.93
2018-04-17T06:13:33.283Z,53.10
2018-04-17T06:15:59.075Z,45.33
2018-04-17T06:18:24.852Z,42.20
2018-04-17T06:20:50.665Z,44.83
2018-04-17T06:23:16.475Z,45.87
2018-04-17T06:25:42.273Z,37.50
2018-04-17T06:28:08.210Z,42.40
2018-04-17T06:30:34.020Z,54.47
2018-04-17T06:32:59.814Z,43.77
2018-04-17T06:35:25.608Z,44.20
2018-04-17T06:37:51.394Z,37.40
2018-04-17T06:40:17.197Z,46.13
2018-04-17T06:42:42.999Z,38.40
2018-04-17T06:45:08.779Z,40.73
2018-04-17T06:47:34.631Z,40.03
2018-04-17T06:50:00.758Z,46.73
2018-04-17T06:52:26.541Z,32.53
2018-04-17T06:54:52.345Z,30.33
2018-04-17T06:57:18.186Z,30.43
2018-04-17T06:59:43.982Z,32.10
2018-04-17T07:02:09.788Z,39.47
2018-04-17T07:04:35.598Z,41.63
2018-04-17T07:07:01.409Z,135.13
2018-04-17T07:09:27.197Z,93.90
2018-04-17T07:11:52.974Z,23.70
2018-04-17T07:14:18.773Z,75.20
2018-04-17T07:16:44.571Z,17.47
2018-04-17T07:19:10.368Z,16.57
2018-04-17T07:21:36.175Z,16.30
2018-04-17T07:24:01.990Z,11.60
2018-04-17T07:26:27.771Z,22.53
2018-04-17T07:28:53.578Z,13.77
2018-04-17T07:31:19.370Z,23.90
2018-04-17T07:33:45.169Z,32.60
2018-04-17T07:36:11.014Z,35.43
2018-04-17T07:38:36.807Z,30.73
2018-04-17T07:41:03.039Z,29.63
2018-04-17T07:43:28.844Z,12.27
2018-04-17T07:45:54.650Z,25.27
2018-04-17T07:48:32.878Z,12.47
2018-04-17T07:50:58.714Z,18.23
2018-04-17T07:53:24.531Z,11.63
2018-04-17T07:55:50.445Z,10.17
2018-04-17T07:58:16.235Z,27.37
2018-04-17T08:00:42.062Z,11.73
2018-04-17T08:03:07.886Z,7.63
2018-04-17T08:05:33.702Z,13.17
2018-04-17T08:07:59.508Z,8.03
2018-04-17T08:10:25.307Z,15.63
2018-04-17T08:12:51.135Z,25.13
2018-04-17T08:15:16.938Z,7.53
2018-04-17T08:17:42.725Z,7.37
2018-04-17T08:20:08.534Z,8.53
2018-04-17T08:22:34.341Z,27.23
2018-04-17T08:25:00.166Z,8.77
2018-04-17T08:27:25.962Z,16.53
2018-04-17T08:29:51.763Z,15.40
2018-04-17T08:32:17.583Z,19.10
2018-04-17T08:34:43.367Z,11.40
2018-04-17T08:37:09.175Z,46.67
2018-04-17T08:39:34.978Z,17.17
2018-04-17T08:42:00.760Z,15.23
2018-04-17T08:44:26.565Z,17.80
2018-04-17T08:46:52.362Z,16.53
2018-04-17T08:49:18.147Z,13.47
2018-04-17T08:51:44.163Z,40.47
2018-04-17T08:54:09.994Z,50.23
2018-04-17T08:56:35.813Z,30.40
2018-04-17T08:59:01.641Z,18.70
2018-04-17T09:01:27.454Z,11.90
2018-04-17T09:03:53.294Z,15.47
2018-04-17T09:06:19.090Z,8.87
2018-04-17T09:08:44.891Z,15.23
2018-04-17T09:11:11.078Z,16.90
2018-04-17T09:13:36.893Z,13.83
2018-04-17T09:16:02.689Z,12.37
2018-04-17T09:18:28.502Z,19.73
2018-04-17T09:20:54.654Z,12.50
2018-04-17T09:23:20.515Z,9.70
2018-04-17T09:25:46.617Z,12.73
2018-04-17T09:28:12.430Z,100.37
2018-04-17T09:30:38.218Z,14.70
2018-04-17T09:33:04.032Z,10.33
2018-04-17T09:35:29.826Z,15.60
2018-04-17T09:37:55.619Z,9.43
2018-04-17T09:40:21.651Z,11.27
2018-04-17T09:42:47.448Z,11.60
2018-04-17T09:45:13.251Z,12.13
2018-04-17T09:47:39.068Z,9.90
2018-04-17T09:50:04.874Z,9.70
2018-04-17T09:52:30.684Z,8.67
2018-04-17T09:54:56.486Z,8.40
2018-04-17T09:57:22.269Z,3.17
2018-04-17T09:59:48.183Z,5.17
2018-04-17T10:02:13.985Z,20.57
2018-04-17T10:04:39.803Z,12.27
2018-04-17T10:07:05.643Z,15.27
2018-04-17T10:09:31.494Z,17.80
2018-04-17T10:11:57.327Z,10.27
2018-04-17T10:14:23.174Z,14.10
2018-04-17T10:16:49.009Z,11.67
2018-04-17T10:19:14.852Z,8.93
2018-04-17T10:21:40.693Z,11.93
2018-04-17T10:24:06.517Z,9.93
2018-04-17T10:26:32.518Z,13.57
2018-04-17T10:28:58.412Z,17.70
2018-04-17T10:31:24.249Z,17.13
2018-04-17T10:33:50.255Z,11.53
2018-04-17T10:36:52.767Z,12.03
2018-04-17T10:39:19.601Z,15.60
2018-04-17T10:41:45.469Z,11.57
2018-04-17T10:44:11.933Z,13.70
2018-04-17T10:46:37.964Z,15.67
2018-04-17T10:49:03.837Z,20.50
2018-04-17T10:51:29.700Z,11.60
2018-04-17T10:53:55.661Z,12.67
2018-04-17T10:56:21.465Z,25.97
2018-04-17T10:58:47.347Z,68.90
2018-04-17T11:01:13.446Z,43.10
2018-04-17T11:03:39.237Z,26.80
2018-04-17T11:06:05.085Z,27.90
2018-04-17T11:08:30.997Z,7.80
2018-04-17T11:10:57.150Z,15.57
2018-04-17T11:13:23.766Z,18.77
2018-04-17T11:15:49.939Z,12.70
2018-04-17T11:18:15.979Z,20.17
2018-04-17T11:20:42.634Z,2.87
2018-04-17T11:23:08.458Z,5.63
2018-04-17T11:25:35.246Z,18.50
2018-04-17T11:28:01.948Z,11.67
2018-04-17T11:30:27.802Z,10.23
2018-04-17T11:32:54.068Z,19.53
2018-04-17T11:35:21.509Z,25.27
2018-04-17T11:37:47.349Z,17.90
2018-04-17T11:40:13.949Z,7.60
2018-04-17T11:42:39.775Z,13.53
2018-04-17T11:45:05.605Z,13.30
2018-04-17T11:47:34.940Z,14.03
2018-04-17T11:50:00.745Z,10.53
2018-04-17T11:52:26.637Z,12.93
2018-04-17T11:54:52.450Z,16.50
2018-04-17T11:57:18.333Z,11.57
2018-04-17T11:59:45.010Z,15.43
2018-04-17T12:02:11.376Z,13.43
2018-04-17T12:04:37.226Z,12.33
2018-04-17T12:07:04.416Z,11.63
2018-04-17T12:09:30.518Z,16.83
2018-04-17T12:11:56.362Z,13.63
2018-04-17T12:14:22.205Z,10.60
2018-04-17T12:16:48.055Z,16.30
2018-04-17T12:19:14.460Z,16.23
2018-04-17T12:21:40.313Z,13.30
2018-04-17T12:24:07.006Z,12.63
2018-04-17T12:26:32.840Z,14.33
2018-04-17T12:28:58.720Z,77.00
2018-04-17T12:31:24.525Z,13.20
2018-04-17T12:33:50.339Z,15.93
2018-04-17T12:36:16.149Z,11.33
2018-04-17T12:38:41.977Z,9.40
2018-04-17T12:41:07.834Z,12.13
2018-04-17T12:43:33.628Z,9.80
2018-04-17T12:45:59.409Z,12.13
2018-04-17T12:48:25.220Z,12.67
2018-04-17T12:50:51.038Z,9.97
2018-04-17T12:53:16.823Z,16.37
2018-04-17T12:55:42.622Z,6.77
2018-04-17T12:58:08.422Z,7.77
2018-04-17T13:00:34.901Z,16.03
2018-04-17T13:03:00.713Z,13.30
2018-04-17T13:05:26.551Z,12.77
2018-04-17T13:07:52.348Z,17.10
2018-04-17T13:10:18.202Z,19.80
2018-04-17T13:12:43.991Z,12.73
2018-04-17T13:15:09.820Z,13.13
2018-04-17T13:17:35.657Z,16.03
2018-04-17T13:20:01.452Z,19.33
2018-04-17T13:22:27.262Z,12.77
2018-04-17T13:24:53.081Z,19.60
2018-04-17T13:27:18.867Z,8.10
2018-04-17T13:29:44.644Z,11.10
2018-04-17T13:32:10.482Z,11.23
2018-04-17T13:34:36.265Z,13.83
2018-04-17T13:37:02.058Z,12.73
2018-04-17T13:39:27.861Z,17.57
2018-04-17T13:41:53.666Z,14.07
2018-04-17T13:44:19.605Z,12.53
2018-04-17T13:46:45.401Z,9.33
2018-04-17T13:49:11.200Z,12.60
2018-04-17T13:51:36.981Z,11.17
2018-04-17T13:54:02.809Z,12.07
2018-04-17T13:56:28.593Z,12.07
2018-04-17T13:58:54.389Z,12.87
2018-04-17T14:01:20.165Z,13.37
2018-04-17T14:03:45.949Z,9.73
2018-04-17T14:06:11.757Z,9.40
2018-04-17T14:08:37.550Z,11.97
2018-04-17T14:11:03.360Z,10.13
2018-04-17T14:13:29.162Z,13.27
2018-04-17T14:15:54.954Z,9.90
2018-04-17T14:18:20.748Z,10.40
2018-04-17T14:20:46.526Z,13.10
2018-04-17T14:23:12.354Z,12.77
2018-04-17T14:25:38.156Z,18.70
2018-04-17T14:28:03.956Z,13.37
2018-04-17T14:30:29.787Z,68.90
2018-04-17T14:32:55.566Z,17.63
2018-04-17T14:35:21.363Z,28.37
2018-04-17T14:37:47.173Z,12.83
2018-04-17T14:40:12.969Z,24.30
2018-04-17T14:42:38.756Z,15.27
2018-04-17T14:45:04.553Z,22.13
2018-04-17T14:47:30.333Z,19.50
2018-04-17T14:49:56.143Z,11.80
2018-04-17T14:52:28.922Z,21.43
2018-04-17T14:54:54.733Z,14.40
2018-04-17T14:57:20.522Z,21.97
2018-04-17T14:59:46.316Z,9.57
2018-04-17T15:02:12.101Z,11.90
2018-04-17T15:04:37.989Z,33.57
2018-04-17T15:07:03.778Z,30.47
2018-04-17T15:09:29.557Z,10.03
2018-04-17T15:11:55.383Z,17.53
2018-04-17T15:14:21.170Z,25.63
2018-04-17T15:16:46.956Z,21.83
2018-04-17T15:19:12.785Z,10.03
2018-04-17T15:21:38.578Z,18.10
2018-04-17T15:24:04.357Z,26.13
2018-04-17T15:26:30.162Z,14.23
2018-04-17T15:28:55.963Z,12.60
2018-04-17T15:31:21.759Z,12.93
2018-04-17T15:33:47.558Z,13.27
2018-04-17T15:36:13.353Z,9.23
2018-04-17T15:38:39.161Z,38.70
2018-04-17T15:41:04.970Z,81.90
2018-04-17T15:43:30.785Z,17.00
2018-04-17T15:45:56.603Z,10.10
2018-04-17T15:48:22.383Z,11.30
2018-04-17T15:50:48.252Z,15.07
2018-04-17T15:53:14.109Z,39.03
2018-04-17T15:55:39.902Z,16.43
2018-04-17T15:58:05.682Z,19.43
2018-04-17T16:00:31.473Z,12.30
2018-04-17T16:02:57.254Z,24.33
2018-04-17T16:05:23.037Z,15.37
2018-04-17T16:07:50.678Z,14.13
2018-04-17T16:10:16.445Z,16.87
2018-04-17T16:12:42.251Z,20.13
2018-04-17T16:15:08.046Z,15.90
2018-04-17T16:17:33.834Z,12.80
2018-04-17T16:19:59.633Z,11.73
2018-04-17T16:22:25.595Z,14.83
2018-04-17T16:24:51.389Z,18.60
2018-04-17T16:27:17.198Z,18.53
2018-04-17T16:29:43.029Z,14.13
2018-04-17T16:32:08.809Z,20.13
2018-04-17T16:34:34.592Z,135.10
2018-04-17T16:37:00.432Z,15.23
2018-04-17T16:39:26.223Z,13.33
2018-04-17T16:41:52.031Z,78.13
2018-04-17T16:44:18.017Z,10.30
2018-04-17T16:46:43.846Z,29.67
2018-04-17T16:49:09.641Z,17.77
2018-04-17T16:51:35.469Z,11.90
2018-04-17T16:54:01.303Z,31.93
2018-04-17T16:56:27.222Z,17.83
2018-04-17T16:58:53.159Z,20.70
2018-04-17T17:01:19.042Z,29.63
2018-04-17T17:03:44.861Z,100.17
2018-04-17T17:06:10.661Z,53.83
2018-04-17T17:08:37.335Z,26.10
2018-04-17T17:11:03.265Z,22.63
2018-04-17T17:13:29.354Z,15.67
2018-04-17T17:15:55.234Z,16.33
2018-04-17T17:18:21.812Z,18.30
2018-04-17T17:20:47.804Z,32.80
2018-04-17T17:23:14.004Z,40.60
2018-04-17T17:25:40.200Z,17.03
2018-04-17T17:28:06.223Z,18.77
2018-04-17T17:30:33.351Z,20.63
2018-04-17T17:33:00.137Z,15.90
2018-04-17T17:35:26.051Z,29.33
2018-04-17T17:37:51.958Z,15.23
2018-04-17T17:40:18.076Z,22.60
2018-04-17T17:42:44.127Z,14.33
2018-04-17T17:45:10.106Z,14.53
2018-04-17T17:47:36.764Z,17.07
2018-04-17T17:50:03.286Z,35.57
2018-04-17T17:52:29.210Z,31.27
2018-04-17T17:54:55.180Z,28.60
2018-04-17T17:57:21.761Z,22.57
2018-04-17T17:59:47.726Z,20.03
2018-04-17T18:02:13.663Z,18.80
2018-04-17T18:04:39.527Z,16.43
2018-04-17T18:07:05.758Z,19.00
2018-04-17T18:09:31.631Z,16.90
2018-04-17T18:11:58.970Z,19.90
2018-04-17T18:14:25.855Z,22.97
2018-04-17T18:16:52.761Z,14.20
2018-04-17T18:19:18.998Z,29.50
2018-04-17T18:21:45.630Z,25.23
2018-04-17T18:24:11.470Z,21.60
2018-04-17T18:26:37.512Z,23.07
2018-04-17T18:29:03.321Z,21.00
2018-04-17T18:31:29.218Z,23.60
2018-04-17T18:33:56.152Z,17.17
2018-04-17T18:36:23.067Z,18.87
2018-04-17T18:38:49.065Z,17.90
2018-04-17T18:41:15.021Z,24.30
2018-04-17T18:43:40.879Z,37.63
2018-04-17T18:46:06.902Z,38.67
2018-04-17T18:48:32.718Z,21.77
2018-04-17T18:50:58.708Z,21.17
2018-04-17T18:53:25.294Z,27.90
2018-04-17T18:55:51.314Z,31.47
2018-04-17T18:58:17.482Z,30.23
2018-04-17T19:00:43.671Z,30.40
2018-04-17T19:03:09.907Z,29.97
2018-04-17T19:05:35.841Z,54.73
2018-04-17T19:08:01.811Z,135.40
2018-04-17T19:10:28.385Z,100.53
2018-04-17T19:12:54.254Z,62.50
2018-04-17T19:15:20.376Z,32.17
2018-04-17T19:17:46.267Z,40.30
2018-04-17T19:20:13.205Z,34.93
2018-04-17T19:22:39.258Z,58.10
2018-04-17T19:25:05.215Z,118.97
2018-04-17T19:27:31.156Z,106.80
2018-04-17T19:29:57.504Z,56.03
2018-04-17T19:32:23.585Z,61.77
2018-04-17T19:34:49.445Z,62.80
2018-04-17T19:37:15.382Z,51.40
2018-04-17T19:39:41.336Z,73.07
2018-04-17T19:42:07.444Z,76.20
2018-04-17T19:44:34.198Z,79.00
2018-04-17T19:47:01.613Z,39.57
2018-04-17T19:49:29.225Z,33.80
2018-04-17T19:51:56.013Z,36.47
2018-04-17T19:54:25.148Z,88.47
2018-04-17T19:56:52.714Z,75.10
2018-04-17T19:59:18.592Z,60.03
2018-04-17T20:01:44.568Z,115.73
2018-04-17T20:04:10.429Z,192.63
2018-04-17T20:06:36.800Z,99.57
2018-04-17T20:09:04.536Z,27.73
2018-04-17T20:11:31.340Z,107.07
2018-04-17T20:13:57.936Z,33.60
2018-04-17T20:16:24.098Z,34.30
2018-04-17T20:18:50.443Z,45.10
2018-04-17T20:21:16.342Z,91.80
2018-04-17T20:23:42.691Z,158.33
2018-04-17T20:26:08.937Z,57.17
2018-04-17T20:28:34.845Z,65.80
2018-04-17T20:31:01.341Z,80.60
2018-04-17T20:33:27.233Z,32.93
2018-04-17T20:35:53.182Z,51.33
2018-04-17T20:38:19.180Z,84.40
2018-04-17T20:40:45.228Z,138.10
2018-04-17T20:43:11.183Z,54.13
2018-04-17T20:45:37.171Z,66.97
2018-04-17T20:48:03.866Z,102.03
2018-04-17T20:50:30.806Z,100.37
2018-04-17T20:52:57.408Z,30.10
2018-04-17T20:55:24.225Z,154.50
2018-04-17T20:57:50.174Z,39.90
2018-04-17T21:00:16.128Z,30.47
2018-04-17T21:02:42.194Z,89.17
2018-04-17T21:05:08.285Z,93.80
2018-04-17T21:07:36.608Z,61.60
2018-04-17T21:10:02.713Z,18.63
2018-04-17T21:12:28.743Z,72.97
2018-04-17T21:14:54.721Z,25.53
2018-04-17T21:17:20.796Z,26.70
2018-04-17T21:19:47.002Z,127.87
2018-04-17T21:22:12.917Z,103.53
2018-04-17T21:24:38.840Z,208.97
2018-04-17T21:27:04.758Z,59.17
2018-04-17T21:29:31.473Z,70.60
2018-04-17T21:31:57.520Z,90.63
2018-04-17T21:34:24.582Z,40.30
2018-04-17T21:36:50.545Z,196.10
2018-04-17T21:39:16.563Z,28.10
2018-04-17T21:41:43.313Z,97.57
2018-04-17T21:44:09.262Z,76.63
2018-04-17T21:46:35.095Z,42.00
2018-04-17T21:49:01.102Z,119.33
2018-04-17T21:51:26.971Z,21.27
2018-04-17T21:53:53.090Z,60.30
2018-04-17T21:56:19.413Z,22.70
2018-04-17T21:58:45.303Z,78.63
2018-04-17T22:01:12.347Z,34.10
2018-04-17T22:03:38.561Z,114.60
2018-04-17T22:06:04.732Z,36.20
2018-04-17T22:08:30.760Z,80.60
2018-04-17T22:10:57.526Z,194.60
2018-04-17T22:13:23.426Z,124.87
2018-04-17T22:15:49.465Z,134.83
2018-04-17T22:18:15.365Z,424.73
2018-04-17T22:20:41.240Z,256.17
2018-04-17T22:23:07.630Z,197.40
2018-04-17T22:25:33.464Z,85.97
2018-04-17T22:27:59.321Z,27.33
2018-04-17T22:30:25.283Z,20.97
2018-04-17T22:32:51.522Z,17.03
2018-04-17T22:35:19.045Z,14.87
2018-04-17T22:37:45.573Z,13.07
2018-04-17T22:40:12.357Z,15.07
2018-04-17T22:42:38.917Z,25.10
2018-04-17T22:45:05.407Z,23.10
2018-04-17T22:47:31.249Z,27.13
2018-04-17T22:49:57.144Z,12.13
2018-04-17T22:52:23.117Z,18.30
2018-04-17T22:54:49.665Z,23.13
2018-04-17T22:57:15.765Z,13.83
2018-04-17T22:59:41.595Z,13.20
2018-04-17T23:02:07.593Z,16.30
2018-04-17T23:04:33.724Z,14.87
2018-04-17T23:07:00.905Z,17.47
2018-04-17T23:09:27.697Z,18.33
2018-04-17T23:11:53.506Z,17.10
2018-04-17T23:14:19.302Z,15.57
2018-04-17T23:16:46.048Z,15.93
2018-04-17T23:19:13.743Z,28.00
2018-04-17T23:21:39.574Z,31.63
2018-04-17T23:24:05.400Z,24.30
2018-04-17T23:26:31.304Z,18.33
2018-04-17T23:28:57.900Z,11.80
2018-04-17T23:31:23.929Z,21.33
2018-04-17T23:33:49.720Z,19.57
2018-04-17T23:36:15.514Z,24.43
2018-04-17T23:38:41.494Z,23.13
2018-04-17T23:41:07.269Z,19.57
2018-04-17T23:43:33.057Z,26.37
2018-04-17T23:45:58.855Z,23.53
2018-04-17T23:48:24.625Z,21.50
2018-04-17T23:50:50.405Z,14.87
2018-04-17T23:53:16.208Z,14.17
2018-04-17T23:55:41.993Z,21.43
2018-04-17T23:58:07.769Z,20.70
